sensor_id;sensor_type;location;lat;lon;timestamp;P1;durP1;ratioP1;P2;durP2;ratioP2
33858;SDS011;20156;47.486;12.074;2022-08-11T00:00:10;3.78;;;3.47;;
33858;SDS011;20156;47.486;12.074;2022-08-11T00:02:38;3.92;;;3.55;;
33858;SDS011;20156;47.486;12.074;2022-08-11T00:07:40;4.10;;;3.50;;
33858;SDS011;20156;47.486;12.074;2022-08-11T00:10:12;3.78;;;3.47;;
33858;SDS011;20156;47.486;12.074;2022-08-11T00:12:40;3.63;;;3.33;;
33858;SDS011;20156;47.486;12.074;2022-08-11T00:15:07;4.85;;;4.40;;
33858;SDS011;20156;47.486;12.074;2022-08-11T00:17:33;5.35;;;4.40;;
33858;SDS011;20156;47.486;12.074;2022-08-11T00:20:05;5.07;;;3.75;;
33858;SDS011;20156;47.486;12.074;2022-08-11T00:22:34;4.00;;;3.60;;
33858;SDS011;20156;47.486;12.074;2022-08-11T00:25:12;4.22;;;3.83;;
33858;SDS011;20156;47.486;12.074;2022-08-11T00:27:40;4.68;;;4.30;;
33858;SDS011;20156;47.486;12.074;2022-08-11T00:30:07;4.53;;;4.13;;
33858;SDS011;20156;47.486;12.074;2022-08-11T00:32:38;5.07;;;4.57;;
33858;SDS011;20156;47.486;12.074;2022-08-11T00:35:06;4.57;;;4.15;;
33858;SDS011;20156;47.486;12.074;2022-08-11T00:37:34;3.67;;;3.38;;
33858;SDS011;20156;47.486;12.074;2022-08-11T00:40:02;3.65;;;3.35;;
33858;SDS011;20156;47.486;12.074;2022-08-11T00:45:32;3.92;;;3.63;;
33858;SDS011;20156;47.486;12.074;2022-08-11T00:51:00;3.88;;;3.58;;
33858;SDS011;20156;47.486;12.074;2022-08-11T01:13:42;3.97;;;3.67;;
33858;SDS011;20156;47.486;12.074;2022-08-11T01:19:11;5.63;;;3.28;;
33858;SDS011;20156;47.486;12.074;2022-08-11T01:33:26;4.18;;;3.78;;
33858;SDS011;20156;47.486;12.074;2022-08-11T01:50:08;5.30;;;3.97;;
33858;SDS011;20156;47.486;12.074;2022-08-11T01:55:33;7.03;;;4.43;;
33858;SDS011;20156;47.486;12.074;2022-08-11T02:01:30;3.90;;;3.50;;
33858;SDS011;20156;47.486;12.074;2022-08-11T02:06:52;3.63;;;3.33;;
33858;SDS011;20156;47.486;12.074;2022-08-11T02:09:42;3.90;;;3.58;;
33858;SDS011;20156;47.486;12.074;2022-08-11T02:15:33;4.60;;;3.67;;
33858;SDS011;20156;47.486;12.074;2022-08-11T02:21:23;5.13;;;4.13;;
33858;SDS011;20156;47.486;12.074;2022-08-11T02:24:22;4.95;;;4.38;;
33858;SDS011;20156;47.486;12.074;2022-08-11T02:26:59;5.88;;;3.53;;
33858;SDS011;20156;47.486;12.074;2022-08-11T02:32:34;7.85;;;4.32;;
33858;SDS011;20156;47.486;12.074;2022-08-11T02:35:26;4.82;;;4.30;;
33858;SDS011;20156;47.486;12.074;2022-08-11T02:43:40;5.18;;;4.75;;
33858;SDS011;20156;47.486;12.074;2022-08-11T02:46:28;5.75;;;5.22;;
33858;SDS011;20156;47.486;12.074;2022-08-11T02:51:58;5.32;;;4.93;;
33858;SDS011;20156;47.486;12.074;2022-08-11T02:59:59;5.43;;;4.20;;
33858;SDS011;20156;47.486;12.074;2022-08-11T03:02:39;5.70;;;3.78;;
33858;SDS011;20156;47.486;12.074;2022-08-11T03:14:13;4.75;;;3.50;;
33858;SDS011;20156;47.486;12.074;2022-08-11T03:30:45;4.35;;;4.05;;
33858;SDS011;20156;47.486;12.074;2022-08-11T03:33:24;4.32;;;3.15;;
33858;SDS011;20156;47.486;12.074;2022-08-11T03:36:21;3.45;;;3.17;;
33858;SDS011;20156;47.486;12.074;2022-08-11T03:42:05;4.22;;;3.92;;
33858;SDS011;20156;47.486;12.074;2022-08-11T03:47:15;3.75;;;3.45;;
33858;SDS011;20156;47.486;12.074;2022-08-11T03:55:29;4.55;;;4.13;;
33858;SDS011;20156;47.486;12.074;2022-08-11T04:01:05;5.05;;;3.88;;
33858;SDS011;20156;47.486;12.074;2022-08-11T04:06:52;4.00;;;3.60;;
33858;SDS011;20156;47.486;12.074;2022-08-11T04:21:19;4.90;;;4.40;;
33858;SDS011;20156;47.486;12.074;2022-08-11T04:30:11;4.28;;;3.90;;
33858;SDS011;20156;47.486;12.074;2022-08-11T04:35:41;5.38;;;4.13;;
33858;SDS011;20156;47.486;12.074;2022-08-11T04:47:01;4.90;;;4.50;;
33858;SDS011;20156;47.486;12.074;2022-08-11T04:49:49;4.78;;;4.30;;
33858;SDS011;20156;47.486;12.074;2022-08-11T04:56:10;8.18;;;5.53;;
33858;SDS011;20156;47.486;12.074;2022-08-11T05:16:23;5.25;;;4.57;;
33858;SDS011;20156;47.486;12.074;2022-08-11T05:19:15;4.15;;;3.70;;
33858;SDS011;20156;47.486;12.074;2022-08-11T05:22:01;4.53;;;4.13;;
33858;SDS011;20156;47.486;12.074;2022-08-11T05:24:47;4.32;;;3.92;;
33858;SDS011;20156;47.486;12.074;2022-08-11T05:30:45;5.40;;;4.13;;
33858;SDS011;20156;47.486;12.074;2022-08-11T05:33:34;4.18;;;3.83;;
33858;SDS011;20156;47.486;12.074;2022-08-11T05:36:30;4.30;;;3.90;;
33858;SDS011;20156;47.486;12.074;2022-08-11T05:39:00;4.68;;;4.28;;
33858;SDS011;20156;47.486;12.074;2022-08-11T05:41:50;4.28;;;3.80;;
33858;SDS011;20156;47.486;12.074;2022-08-11T05:44:43;4.63;;;4.18;;
33858;SDS011;20156;47.486;12.074;2022-08-11T05:47:28;4.30;;;3.85;;
33858;SDS011;20156;47.486;12.074;2022-08-11T05:50:13;4.35;;;4.00;;
33858;SDS011;20156;47.486;12.074;2022-08-11T05:53:00;4.47;;;4.07;;
33858;SDS011;20156;47.486;12.074;2022-08-11T05:55:46;4.93;;;4.43;;
33858;SDS011;20156;47.486;12.074;2022-08-11T05:58:44;7.20;;;5.28;;
33858;SDS011;20156;47.486;12.074;2022-08-11T06:01:30;5.05;;;4.55;;
33858;SDS011;20156;47.486;12.074;2022-08-11T06:03:58;5.53;;;4.75;;
33858;SDS011;20156;47.486;12.074;2022-08-11T06:06:38;6.60;;;4.45;;
33858;SDS011;20156;47.486;12.074;2022-08-11T06:09:32;4.68;;;4.28;;
33858;SDS011;20156;47.486;12.074;2022-08-11T06:12:02;4.80;;;4.40;;
33858;SDS011;20156;47.486;12.074;2022-08-11T06:14:30;4.68;;;4.28;;
33858;SDS011;20156;47.486;12.074;2022-08-11T06:16:59;5.20;;;4.70;;
33858;SDS011;20156;47.486;12.074;2022-08-11T06:19:30;6.38;;;5.53;;
33858;SDS011;20156;47.486;12.074;2022-08-11T06:21:58;14.25;;;10.45;;
33858;SDS011;20156;47.486;12.074;2022-08-11T06:24:25;21.80;;;15.07;;
33858;SDS011;20156;47.486;12.074;2022-08-11T06:26:53;19.80;;;15.52;;
33858;SDS011;20156;47.486;12.074;2022-08-11T06:29:19;20.23;;;13.15;;
33858;SDS011;20156;47.486;12.074;2022-08-11T06:31:50;19.45;;;14.60;;
33858;SDS011;20156;47.486;12.074;2022-08-11T06:34:30;6.55;;;5.95;;
33858;SDS011;20156;47.486;12.074;2022-08-11T06:45:52;13.02;;;10.95;;
33858;SDS011;20156;47.486;12.074;2022-08-11T06:48:27;20.13;;;13.80;;
33858;SDS011;20156;47.486;12.074;2022-08-11T06:50:56;13.63;;;11.27;;
33858;SDS011;20156;47.486;12.074;2022-08-11T06:53:54;28.25;;;21.58;;
33858;SDS011;20156;47.486;12.074;2022-08-11T06:56:22;24.45;;;20.15;;
33858;SDS011;20156;47.486;12.074;2022-08-11T06:59:11;13.50;;;11.07;;
33858;SDS011;20156;47.486;12.074;2022-08-11T07:02:16;10.50;;;7.50;;
33858;SDS011;20156;47.486;12.074;2022-08-11T07:13:05;11.55;;;10.35;;
33858;SDS011;20156;47.486;12.074;2022-08-11T07:15:50;8.93;;;7.07;;
33858;SDS011;20156;47.486;12.074;2022-08-11T07:24:11;11.57;;;5.95;;
33858;SDS011;20156;47.486;12.074;2022-08-11T07:26:58;6.50;;;5.22;;
33858;SDS011;20156;47.486;12.074;2022-08-11T07:29:44;6.28;;;4.95;;
33858;SDS011;20156;47.486;12.074;2022-08-11T07:32:13;7.65;;;5.22;;
33858;SDS011;20156;47.486;12.074;2022-08-11T07:34:47;6.93;;;5.53;;
33858;SDS011;20156;47.486;12.074;2022-08-11T07:37:17;9.60;;;5.05;;
33858;SDS011;20156;47.486;12.074;2022-08-11T07:39:45;5.10;;;4.57;;
33858;SDS011;20156;47.486;12.074;2022-08-11T07:42:16;7.72;;;4.85;;
33858;SDS011;20156;47.486;12.074;2022-08-11T07:44:47;9.05;;;5.13;;
33858;SDS011;20156;47.486;12.074;2022-08-11T07:47:32;8.77;;;4.90;;
33858;SDS011;20156;47.486;12.074;2022-08-11T07:50:18;6.43;;;4.53;;
33858;SDS011;20156;47.486;12.074;2022-08-11T07:53:03;8.00;;;5.10;;
33858;SDS011;20156;47.486;12.074;2022-08-11T07:55:30;5.00;;;4.57;;
33858;SDS011;20156;47.486;12.074;2022-08-11T07:57:57;8.30;;;4.20;;
33858;SDS011;20156;47.486;12.074;2022-08-11T08:00:44;4.78;;;4.28;;
33858;SDS011;20156;47.486;12.074;2022-08-11T08:03:29;7.68;;;4.47;;
33858;SDS011;20156;47.486;12.074;2022-08-11T08:06:15;6.60;;;4.18;;
33858;SDS011;20156;47.486;12.074;2022-08-11T08:09:00;4.40;;;4.00;;
33858;SDS011;20156;47.486;12.074;2022-08-11T08:11:45;4.88;;;3.90;;
33858;SDS011;20156;47.486;12.074;2022-08-11T08:14:30;6.22;;;4.10;;
33858;SDS011;20156;47.486;12.074;2022-08-11T08:17:15;5.13;;;3.97;;
33858;SDS011;20156;47.486;12.074;2022-08-11T08:19:59;5.75;;;4.00;;
33858;SDS011;20156;47.486;12.074;2022-08-11T08:22:26;4.22;;;3.83;;
33858;SDS011;20156;47.486;12.074;2022-08-11T08:24:52;4.70;;;4.18;;
33858;SDS011;20156;47.486;12.074;2022-08-11T08:27:20;4.22;;;3.88;;
33858;SDS011;20156;47.486;12.074;2022-08-11T08:29:46;4.03;;;3.47;;
33858;SDS011;20156;47.486;12.074;2022-08-11T08:32:31;7.45;;;4.35;;
33858;SDS011;20156;47.486;12.074;2022-08-11T08:34:59;4.38;;;3.90;;
33858;SDS011;20156;47.486;12.074;2022-08-11T08:37:26;4.25;;;3.85;;
33858;SDS011;20156;47.486;12.074;2022-08-11T08:39:52;6.03;;;4.03;;
33858;SDS011;20156;47.486;12.074;2022-08-11T08:42:30;4.18;;;3.88;;
33858;SDS011;20156;47.486;12.074;2022-08-11T08:47:40;5.68;;;4.38;;
33858;SDS011;20156;47.486;12.074;2022-08-11T08:50:09;4.32;;;3.67;;
33858;SDS011;20156;47.486;12.074;2022-08-11T08:52:38;4.50;;;3.53;;
33858;SDS011;20156;47.486;12.074;2022-08-11T08:55:08;6.25;;;3.50;;
33858;SDS011;20156;47.486;12.074;2022-08-11T08:57:41;4.75;;;3.92;;
33858;SDS011;20156;47.486;12.074;2022-08-11T09:00:09;4.32;;;3.92;;
33858;SDS011;20156;47.486;12.074;2022-08-11T09:02:38;6.55;;;3.63;;
33858;SDS011;20156;47.486;12.074;2022-08-11T09:05:04;4.13;;;3.80;;
33858;SDS011;20156;47.486;12.074;2022-08-11T09:07:33;4.13;;;3.63;;
33858;SDS011;20156;47.486;12.074;2022-08-11T09:09:58;4.53;;;4.05;;
33858;SDS011;20156;47.486;12.074;2022-08-11T09:12:26;5.85;;;4.13;;
33858;SDS011;20156;47.486;12.074;2022-08-11T09:14:55;5.55;;;4.00;;
33858;SDS011;20156;47.486;12.074;2022-08-11T09:18:07;3.85;;;3.47;;
33858;SDS011;20156;47.486;12.074;2022-08-11T09:20:26;5.32;;;3.97;;
33858;SDS011;20156;47.486;12.074;2022-08-11T09:22:58;7.20;;;4.07;;
33858;SDS011;20156;47.486;12.074;2022-08-11T09:25:45;6.05;;;3.92;;
33858;SDS011;20156;47.486;12.074;2022-08-11T09:28:29;6.50;;;4.00;;
33858;SDS011;20156;47.486;12.074;2022-08-11T09:30:55;3.70;;;3.40;;
33858;SDS011;20156;47.486;12.074;2022-08-11T09:33:25;7.60;;;4.43;;
33858;SDS011;20156;47.486;12.074;2022-08-11T09:35:52;3.92;;;3.63;;
33858;SDS011;20156;47.486;12.074;2022-08-11T09:38:19;4.60;;;4.07;;
33858;SDS011;20156;47.486;12.074;2022-08-11T09:41:07;4.32;;;3.92;;
33858;SDS011;20156;47.486;12.074;2022-08-11T09:43:43;4.15;;;3.80;;
33858;SDS011;20156;47.486;12.074;2022-08-11T09:46:28;5.05;;;3.60;;
33858;SDS011;20156;47.486;12.074;2022-08-11T09:48:57;4.78;;;3.80;;
33858;SDS011;20156;47.486;12.074;2022-08-11T09:51:25;3.35;;;2.88;;
33858;SDS011;20156;47.486;12.074;2022-08-11T09:53:58;4.00;;;3.60;;
33858;SDS011;20156;47.486;12.074;2022-08-11T09:56:25;6.65;;;3.30;;
33858;SDS011;20156;47.486;12.074;2022-08-11T09:59:11;3.50;;;3.20;;
33858;SDS011;20156;47.486;12.074;2022-08-11T10:01:42;3.80;;;3.17;;
33858;SDS011;20156;47.486;12.074;2022-08-11T10:04:17;3.65;;;3.35;;
33858;SDS011;20156;47.486;12.074;2022-08-11T10:06:51;3.58;;;3.28;;
33858;SDS011;20156;47.486;12.074;2022-08-11T10:12:21;3.78;;;3.40;;
33858;SDS011;20156;47.486;12.074;2022-08-11T10:14:52;3.30;;;3.00;;
33858;SDS011;20156;47.486;12.074;2022-08-11T10:17:41;3.83;;;3.38;;
33858;SDS011;20156;47.486;12.074;2022-08-11T10:20:31;2.95;;;2.70;;
33858;SDS011;20156;47.486;12.074;2022-08-11T10:22:59;2.97;;;2.67;;
33858;SDS011;20156;47.486;12.074;2022-08-11T10:25:44;3.13;;;2.85;;
33858;SDS011;20156;47.486;12.074;2022-08-11T10:28:29;4.28;;;3.00;;
33858;SDS011;20156;47.486;12.074;2022-08-11T10:30:56;2.63;;;2.42;;
33858;SDS011;20156;47.486;12.074;2022-08-11T10:33:40;3.20;;;2.70;;
33858;SDS011;20156;47.486;12.074;2022-08-11T10:36:29;3.03;;;2.75;;
33858;SDS011;20156;47.486;12.074;2022-08-11T10:38:56;3.00;;;2.63;;
33858;SDS011;20156;47.486;12.074;2022-08-11T10:41:24;2.90;;;2.65;;
33858;SDS011;20156;47.486;12.074;2022-08-11T10:44:08;4.80;;;2.70;;
33858;SDS011;20156;47.486;12.074;2022-08-11T10:46:35;3.60;;;3.15;;
33858;SDS011;20156;47.486;12.074;2022-08-11T10:49:21;3.55;;;3.20;;
33858;SDS011;20156;47.486;12.074;2022-08-11T10:51:49;3.45;;;3.15;;
33858;SDS011;20156;47.486;12.074;2022-08-11T10:54:34;3.55;;;2.78;;
33858;SDS011;20156;47.486;12.074;2022-08-11T10:57:19;2.95;;;2.63;;
33858;SDS011;20156;47.486;12.074;2022-08-11T11:00:04;2.80;;;2.53;;
33858;SDS011;20156;47.486;12.074;2022-08-11T11:02:31;3.25;;;2.80;;
33858;SDS011;20156;47.486;12.074;2022-08-11T11:10:26;3.67;;;2.80;;
33858;SDS011;20156;47.486;12.074;2022-08-11T11:12:53;3.60;;;3.30;;
33858;SDS011;20156;47.486;12.074;2022-08-11T11:15:43;4.00;;;2.92;;
33858;SDS011;20156;47.486;12.074;2022-08-11T11:18:31;5.05;;;3.33;;
33858;SDS011;20156;47.486;12.074;2022-08-11T11:21:07;3.10;;;2.80;;
33858;SDS011;20156;47.486;12.074;2022-08-11T11:37:31;4.45;;;3.33;;
33858;SDS011;20156;47.486;12.074;2022-08-11T11:40:01;5.68;;;3.20;;
33858;SDS011;20156;47.486;12.074;2022-08-11T11:42:34;3.95;;;2.88;;
33858;SDS011;20156;47.486;12.074;2022-08-11T11:45:00;3.53;;;3.22;;
33858;SDS011;20156;47.486;12.074;2022-08-11T11:47:27;4.10;;;3.35;;
33858;SDS011;20156;47.486;12.074;2022-08-11T11:49:54;6.82;;;3.20;;
33858;SDS011;20156;47.486;12.074;2022-08-11T11:52:21;3.58;;;3.28;;
33858;SDS011;20156;47.486;12.074;2022-08-11T11:54:48;4.55;;;3.00;;
33858;SDS011;20156;47.486;12.074;2022-08-11T11:57:18;4.38;;;3.13;;
33858;SDS011;20156;47.486;12.074;2022-08-11T12:00:05;5.03;;;2.88;;
33858;SDS011;20156;47.486;12.074;2022-08-11T12:02:50;5.32;;;3.17;;
33858;SDS011;20156;47.486;12.074;2022-08-11T12:05:17;3.58;;;3.28;;
33858;SDS011;20156;47.486;12.074;2022-08-11T12:07:43;4.30;;;3.35;;
33858;SDS011;20156;47.486;12.074;2022-08-11T12:10:28;3.20;;;3.00;;
33858;SDS011;20156;47.486;12.074;2022-08-11T12:12:55;3.42;;;3.13;;
33858;SDS011;20156;47.486;12.074;2022-08-11T12:15:45;3.17;;;2.90;;
33858;SDS011;20156;47.486;12.074;2022-08-11T12:18:12;3.90;;;3.60;;
33858;SDS011;20156;47.486;12.074;2022-08-11T12:20:39;3.67;;;2.85;;
33858;SDS011;20156;47.486;12.074;2022-08-11T12:23:09;4.43;;;3.10;;
33858;SDS011;20156;47.486;12.074;2022-08-11T12:25:53;3.13;;;2.88;;
33858;SDS011;20156;47.486;12.074;2022-08-11T12:28:37;5.00;;;2.97;;
33858;SDS011;20156;47.486;12.074;2022-08-11T12:31:04;3.53;;;3.10;;
33858;SDS011;20156;47.486;12.074;2022-08-11T12:33:34;3.60;;;2.80;;
33858;SDS011;20156;47.486;12.074;2022-08-11T12:36:05;3.35;;;3.10;;
33858;SDS011;20156;47.486;12.074;2022-08-11T12:38:33;4.47;;;3.20;;
33858;SDS011;20156;47.486;12.074;2022-08-11T12:41:00;4.75;;;2.90;;
33858;SDS011;20156;47.486;12.074;2022-08-11T12:43:45;7.55;;;3.08;;
33858;SDS011;20156;47.486;12.074;2022-08-11T12:46:31;4.63;;;3.05;;
33858;SDS011;20156;47.486;12.074;2022-08-11T12:49:00;5.07;;;3.30;;
33858;SDS011;20156;47.486;12.074;2022-08-11T12:51:52;3.80;;;2.85;;
33858;SDS011;20156;47.486;12.074;2022-08-11T12:57:41;4.60;;;2.60;;
33858;SDS011;20156;47.486;12.074;2022-08-11T13:00:29;3.22;;;2.92;;
33858;SDS011;20156;47.486;12.074;2022-08-11T13:03:14;5.07;;;3.13;;
33858;SDS011;20156;47.486;12.074;2022-08-11T13:06:03;3.45;;;2.80;;
33858;SDS011;20156;47.486;12.074;2022-08-11T13:08:30;2.75;;;2.55;;
33858;SDS011;20156;47.486;12.074;2022-08-11T13:10:59;6.00;;;3.42;;
33858;SDS011;20156;47.486;12.074;2022-08-11T13:13:45;3.20;;;2.90;;
33858;SDS011;20156;47.486;12.074;2022-08-11T13:16:13;3.80;;;2.90;;
33858;SDS011;20156;47.486;12.074;2022-08-11T13:18:41;3.75;;;2.92;;
33858;SDS011;20156;47.486;12.074;2022-08-11T13:21:10;3.20;;;3.00;;
33858;SDS011;20156;47.486;12.074;2022-08-11T13:23:38;2.95;;;2.75;;
33858;SDS011;20156;47.486;12.074;2022-08-11T13:26:04;3.90;;;3.10;;
33858;SDS011;20156;47.486;12.074;2022-08-11T13:28:33;4.25;;;3.00;;
33858;SDS011;20156;47.486;12.074;2022-08-11T13:31:00;4.40;;;3.10;;
33858;SDS011;20156;47.486;12.074;2022-08-11T13:33:42;5.75;;;3.15;;
33858;SDS011;20156;47.486;12.074;2022-08-11T13:36:10;4.10;;;2.92;;
33858;SDS011;20156;47.486;12.074;2022-08-11T13:38:37;4.70;;;3.00;;
33858;SDS011;20156;47.486;12.074;2022-08-11T13:41:06;4.72;;;3.20;;
33858;SDS011;20156;47.486;12.074;2022-08-11T13:43:52;3.28;;;2.70;;
33858;SDS011;20156;47.486;12.074;2022-08-11T13:46:19;5.35;;;2.70;;
33858;SDS011;20156;47.486;12.074;2022-08-11T13:48:46;3.25;;;2.90;;
33858;SDS011;20156;47.486;12.074;2022-08-11T13:51:12;4.18;;;3.28;;
33858;SDS011;20156;47.486;12.074;2022-08-11T13:54:07;5.10;;;2.78;;
33858;SDS011;20156;47.486;12.074;2022-08-11T13:56:36;4.40;;;2.92;;
33858;SDS011;20156;47.486;12.074;2022-08-11T13:59:04;4.07;;;2.90;;
33858;SDS011;20156;47.486;12.074;2022-08-11T14:01:32;4.32;;;2.85;;
33858;SDS011;20156;47.486;12.074;2022-08-11T14:04:08;3.92;;;2.70;;
33858;SDS011;20156;47.486;12.074;2022-08-11T14:06:37;2.97;;;2.78;;
33858;SDS011;20156;47.486;12.074;2022-08-11T14:09:07;2.78;;;2.58;;
33858;SDS011;20156;47.486;12.074;2022-08-11T14:11:34;3.15;;;2.85;;
33858;SDS011;20156;47.486;12.074;2022-08-11T14:14:20;3.03;;;2.72;;
33858;SDS011;20156;47.486;12.074;2022-08-11T14:16:49;3.28;;;2.97;;
33858;SDS011;20156;47.486;12.074;2022-08-11T14:19:18;3.08;;;2.83;;
33858;SDS011;20156;47.486;12.074;2022-08-11T14:21:46;4.55;;;2.80;;
33858;SDS011;20156;47.486;12.074;2022-08-11T14:24:38;3.20;;;2.90;;
33858;SDS011;20156;47.486;12.074;2022-08-11T14:27:06;3.45;;;2.90;;
33858;SDS011;20156;47.486;12.074;2022-08-11T14:29:33;5.50;;;4.20;;
33858;SDS011;20156;47.486;12.074;2022-08-11T14:32:03;3.33;;;3.00;;
33858;SDS011;20156;47.486;12.074;2022-08-11T14:34:31;3.15;;;2.70;;
33858;SDS011;20156;47.486;12.074;2022-08-11T14:37:03;3.20;;;2.67;;
33858;SDS011;20156;47.486;12.074;2022-08-11T14:39:37;3.42;;;3.08;;
33858;SDS011;20156;47.486;12.074;2022-08-11T14:42:06;2.85;;;2.60;;
33858;SDS011;20156;47.486;12.074;2022-08-11T14:44:56;3.00;;;2.70;;
33858;SDS011;20156;47.486;12.074;2022-08-11T14:47:43;4.80;;;2.70;;
33858;SDS011;20156;47.486;12.074;2022-08-11T14:50:13;3.42;;;3.10;;
33858;SDS011;20156;47.486;12.074;2022-08-11T14:52:53;3.53;;;2.80;;
33858;SDS011;20156;47.486;12.074;2022-08-11T14:55:22;3.38;;;2.80;;
33858;SDS011;20156;47.486;12.074;2022-08-11T14:58:12;2.97;;;2.67;;
33858;SDS011;20156;47.486;12.074;2022-08-11T15:00:41;3.40;;;2.53;;
33858;SDS011;20156;47.486;12.074;2022-08-11T15:03:09;3.13;;;2.55;;
33858;SDS011;20156;47.486;12.074;2022-08-11T15:05:45;4.50;;;2.80;;
33858;SDS011;20156;47.486;12.074;2022-08-11T15:08:13;3.47;;;2.50;;
33858;SDS011;20156;47.486;12.074;2022-08-11T15:10:40;4.78;;;2.60;;
33858;SDS011;20156;47.486;12.074;2022-08-11T15:13:06;3.58;;;2.50;;
33858;SDS011;20156;47.486;12.074;2022-08-11T15:15:32;2.72;;;2.53;;
33858;SDS011;20156;47.486;12.074;2022-08-11T15:18:17;4.38;;;2.53;;
33858;SDS011;20156;47.486;12.074;2022-08-11T15:20:45;2.63;;;2.35;;
33858;SDS011;20156;47.486;12.074;2022-08-11T15:23:29;4.05;;;2.63;;
33858;SDS011;20156;47.486;12.074;2022-08-11T15:26:26;3.55;;;2.35;;
33858;SDS011;20156;47.486;12.074;2022-08-11T15:29:14;2.70;;;2.50;;
33858;SDS011;20156;47.486;12.074;2022-08-11T15:32:03;2.35;;;2.15;;
33858;SDS011;20156;47.486;12.074;2022-08-11T15:34:50;3.20;;;2.60;;
33858;SDS011;20156;47.486;12.074;2022-08-11T15:37:38;2.78;;;2.58;;
33858;SDS011;20156;47.486;12.074;2022-08-11T15:40:17;2.65;;;2.20;;
33858;SDS011;20156;47.486;12.074;2022-08-11T15:43:17;3.00;;;2.38;;
33858;SDS011;20156;47.486;12.074;2022-08-11T15:46:05;4.25;;;2.50;;
33858;SDS011;20156;47.486;12.074;2022-08-11T15:49:20;2.30;;;2.20;;
33858;SDS011;20156;47.486;12.074;2022-08-11T15:53:58;3.85;;;2.38;;
33858;SDS011;20156;47.486;12.074;2022-08-11T15:56:28;2.97;;;2.45;;
33858;SDS011;20156;47.486;12.074;2022-08-11T15:58:56;2.50;;;2.30;;
33858;SDS011;20156;47.486;12.074;2022-08-11T16:01:43;4.60;;;2.63;;
33858;SDS011;20156;47.486;12.074;2022-08-11T16:04:30;3.65;;;2.75;;
33858;SDS011;20156;47.486;12.074;2022-08-11T16:12:03;2.47;;;2.30;;
33858;SDS011;20156;47.486;12.074;2022-08-11T16:14:33;3.17;;;2.50;;
33858;SDS011;20156;47.486;12.074;2022-08-11T16:17:22;2.75;;;2.40;;
33858;SDS011;20156;47.486;12.074;2022-08-11T16:19:50;2.50;;;2.30;;
33858;SDS011;20156;47.486;12.074;2022-08-11T16:22:20;3.13;;;2.58;;
33858;SDS011;20156;47.486;12.074;2022-08-11T16:25:07;3.38;;;2.30;;
33858;SDS011;20156;47.486;12.074;2022-08-11T16:27:39;3.22;;;2.25;;
33858;SDS011;20156;47.486;12.074;2022-08-11T16:30:08;2.47;;;2.28;;
33858;SDS011;20156;47.486;12.074;2022-08-11T16:32:35;3.47;;;2.17;;
33858;SDS011;20156;47.486;12.074;2022-08-11T16:35:06;2.47;;;2.28;;
33858;SDS011;20156;47.486;12.074;2022-08-11T16:37:52;4.47;;;2.60;;
33858;SDS011;20156;47.486;12.074;2022-08-11T16:40:38;2.22;;;2.00;;
33858;SDS011;20156;47.486;12.074;2022-08-11T16:43:06;2.47;;;2.25;;
33858;SDS011;20156;47.486;12.074;2022-08-11T16:45:53;3.90;;;2.60;;
33858;SDS011;20156;47.486;12.074;2022-08-11T16:48:40;2.53;;;2.28;;
33858;SDS011;20156;47.486;12.074;2022-08-11T16:51:07;2.80;;;2.60;;
33858;SDS011;20156;47.486;12.074;2022-08-11T16:53:36;2.40;;;2.25;;
33858;SDS011;20156;47.486;12.074;2022-08-11T16:56:03;3.88;;;2.47;;
33858;SDS011;20156;47.486;12.074;2022-08-11T16:58:31;3.03;;;2.17;;
33858;SDS011;20156;47.486;12.074;2022-08-11T17:01:20;2.78;;;2.47;;
33858;SDS011;20156;47.486;12.074;2022-08-11T17:03:50;2.60;;;2.40;;
33858;SDS011;20156;47.486;12.074;2022-08-11T17:06:40;3.92;;;2.60;;
33858;SDS011;20156;47.486;12.074;2022-08-11T17:09:27;4.15;;;2.50;;
33858;SDS011;20156;47.486;12.074;2022-08-11T17:12:15;4.03;;;2.60;;
33858;SDS011;20156;47.486;12.074;2022-08-11T17:15:03;3.97;;;2.30;;
33858;SDS011;20156;47.486;12.074;2022-08-11T17:17:53;2.50;;;2.30;;
33858;SDS011;20156;47.486;12.074;2022-08-11T17:20:22;3.17;;;2.38;;
33858;SDS011;20156;47.486;12.074;2022-08-11T17:22:48;3.03;;;2.53;;
33858;SDS011;20156;47.486;12.074;2022-08-11T17:25:34;9.20;;;4.07;;
33858;SDS011;20156;47.486;12.074;2022-08-11T17:27:59;5.07;;;2.90;;
33858;SDS011;20156;47.486;12.074;2022-08-11T17:30:27;4.65;;;2.78;;
33858;SDS011;20156;47.486;12.074;2022-08-11T17:33:13;3.72;;;2.65;;
33858;SDS011;20156;47.486;12.074;2022-08-11T17:35:58;3.78;;;2.35;;
33858;SDS011;20156;47.486;12.074;2022-08-11T17:38:25;4.45;;;2.42;;
33858;SDS011;20156;47.486;12.074;2022-08-11T17:40:56;2.65;;;2.22;;
33858;SDS011;20156;47.486;12.074;2022-08-11T17:43:42;4.35;;;2.50;;
33858;SDS011;20156;47.486;12.074;2022-08-11T17:46:28;2.72;;;2.53;;
33858;SDS011;20156;47.486;12.074;2022-08-11T17:49:13;3.13;;;2.30;;
33858;SDS011;20156;47.486;12.074;2022-08-11T17:51:40;4.28;;;2.40;;
33858;SDS011;20156;47.486;12.074;2022-08-11T17:54:27;3.95;;;2.40;;
33858;SDS011;20156;47.486;12.074;2022-08-11T17:57:13;3.20;;;2.25;;
33858;SDS011;20156;47.486;12.074;2022-08-11T17:59:58;4.20;;;2.63;;
33858;SDS011;20156;47.486;12.074;2022-08-11T18:05:16;3.30;;;2.80;;
33858;SDS011;20156;47.486;12.074;2022-08-11T18:07:43;2.72;;;2.53;;
33858;SDS011;20156;47.486;12.074;2022-08-11T18:10:30;2.88;;;2.60;;
33858;SDS011;20156;47.486;12.074;2022-08-11T18:13:19;2.97;;;2.47;;
33858;SDS011;20156;47.486;12.074;2022-08-11T18:16:05;5.32;;;2.60;;
33858;SDS011;20156;47.486;12.074;2022-08-11T18:18:50;4.78;;;2.30;;
33858;SDS011;20156;47.486;12.074;2022-08-11T18:21:35;3.15;;;2.75;;
33858;SDS011;20156;47.486;12.074;2022-08-11T18:24:22;7.00;;;2.63;;
33858;SDS011;20156;47.486;12.074;2022-08-11T18:27:08;3.58;;;2.25;;
33858;SDS011;20156;47.486;12.074;2022-08-11T18:29:55;3.42;;;2.30;;
33858;SDS011;20156;47.486;12.074;2022-08-11T18:32:43;3.72;;;2.50;;
33858;SDS011;20156;47.486;12.074;2022-08-11T18:35:29;4.30;;;2.45;;
33858;SDS011;20156;47.486;12.074;2022-08-11T18:38:16;7.10;;;2.75;;
33858;SDS011;20156;47.486;12.074;2022-08-11T18:41:03;3.15;;;2.60;;
33858;SDS011;20156;47.486;12.074;2022-08-11T18:43:49;2.85;;;2.30;;
33858;SDS011;20156;47.486;12.074;2022-08-11T18:46:35;2.53;;;2.10;;
33858;SDS011;20156;47.486;12.074;2022-08-11T18:49:21;2.88;;;2.40;;
33858;SDS011;20156;47.486;12.074;2022-08-11T18:52:08;4.10;;;2.70;;
33858;SDS011;20156;47.486;12.074;2022-08-11T18:54:55;4.95;;;2.65;;
33858;SDS011;20156;47.486;12.074;2022-08-11T18:57:41;4.05;;;2.45;;
33858;SDS011;20156;47.486;12.074;2022-08-11T19:00:29;3.10;;;2.80;;
33858;SDS011;20156;47.486;12.074;2022-08-11T19:03:15;3.03;;;2.72;;
33858;SDS011;20156;47.486;12.074;2022-08-11T19:06:01;3.45;;;2.50;;
33858;SDS011;20156;47.486;12.074;2022-08-11T19:08:51;3.70;;;2.75;;
33858;SDS011;20156;47.486;12.074;2022-08-11T19:11:37;4.75;;;2.42;;
33858;SDS011;20156;47.486;12.074;2022-08-11T19:14:22;2.80;;;2.60;;
33858;SDS011;20156;47.486;12.074;2022-08-11T19:17:08;6.35;;;2.70;;
33858;SDS011;20156;47.486;12.074;2022-08-11T19:19:55;2.55;;;2.35;;
33858;SDS011;20156;47.486;12.074;2022-08-11T19:22:41;3.03;;;2.83;;
33858;SDS011;20156;47.486;12.074;2022-08-11T19:25:27;2.65;;;2.45;;
33858;SDS011;20156;47.486;12.074;2022-08-11T19:28:14;3.38;;;2.88;;
33858;SDS011;20156;47.486;12.074;2022-08-11T19:31:01;2.70;;;2.50;;
33858;SDS011;20156;47.486;12.074;2022-08-11T19:33:45;3.03;;;2.72;;
33858;SDS011;20156;47.486;12.074;2022-08-11T19:36:30;3.28;;;2.88;;